createdAt,value
2018-10-19T00:06:08.763Z,93.34
2018-10-19T00:16:08.752Z,92.97
2018-10-19T00:26:08.811Z,93.61
2018-10-19T00:36:08.732Z,93.22
2018-10-19T00:46:08.824Z,93.30
2018-10-19T00:56:08.800Z,93.98
2018-10-19T01:06:08.817Z,93.11
2018-10-19T01:16:08.804Z,93.66
2018-10-19T01:26:08.740Z,94.16
2018-10-19T01:36:08.763Z,93.83
2018-10-19T01:47:02.691Z,93.33
2018-10-19T01:57:02.434Z,93.01
2018-10-19T02:07:02.450Z,93.16
2018-10-19T02:17:02.600Z,92.81
2018-10-19T02:27:02.491Z,93.27
2018-10-19T02:37:02.441Z,93.04
2018-10-19T02:47:02.507Z,93.44
2018-10-19T02:57:02.421Z,93.59
2018-10-19T03:07:02.459Z,93.55
2018-10-19T03:17:02.492Z,93.64
2018-10-19T03:27:02.524Z,93.75
2018-10-19T03:37:02.388Z,93.57
2018-10-19T03:47:03.978Z,93.68
2018-10-19T03:57:02.556Z,93.11
2018-10-19T04:07:02.483Z,93.98
2018-10-19T04:17:02.668Z,93.68
2018-10-19T04:27:02.497Z,93.94
2018-10-19T04:37:02.731Z,93.05
2018-10-19T04:47:02.557Z,93.08
2018-10-19T04:57:02.541Z,93.33
2018-10-19T05:07:03.232Z,92.84
2018-10-19T05:17:02.677Z,92.66
2018-10-19T05:27:02.472Z,93.19
2018-10-19T05:37:02.550Z,93.67
2018-10-19T05:47:02.598Z,93.77
2018-10-19T05:57:02.453Z,94.19
2018-10-19T06:07:02.488Z,94.32
2018-10-19T06:17:02.625Z,94.86
2018-10-19T06:27:02.450Z,94.45
2018-10-19T06:37:02.532Z,94.74
2018-10-19T06:47:02.566Z,94.84
2018-10-19T06:57:02.451Z,94.70
2018-10-19T07:07:02.432Z,94.55
2018-10-19T07:17:02.631Z,94.17
2018-10-19T07:27:02.522Z,94.15
2018-10-19T07:37:02.556Z,93.83
2018-10-19T07:47:02.623Z,93.08
2018-10-19T07:57:02.446Z,93.33
2018-10-19T08:07:02.567Z,92.94
2018-10-19T08:17:02.467Z,91.41
2018-10-19T08:27:02.403Z,91.51
2018-10-19T08:37:02.402Z,90.35
2018-10-19T08:47:02.503Z,90.47
2018-10-19T08:57:02.466Z,88.73
2018-10-19T09:07:02.506Z,85.52
2018-10-19T09:17:02.512Z,84.18
2018-10-19T09:27:02.697Z,77.13
2018-10-19T09:37:02.480Z,74.79
2018-10-19T09:47:02.559Z,75.76
2018-10-19T09:57:02.457Z,70.35
2018-10-19T10:07:02.591Z,66.75
2018-10-19T10:17:02.902Z,68.16
2018-10-19T10:27:02.450Z,65.76
2018-10-19T10:37:02.622Z,61.00
2018-10-19T10:47:02.745Z,60.57
2018-10-19T10:57:02.536Z,64.16
2018-10-19T11:07:02.658Z,60.78
2018-10-19T11:17:02.546Z,61.94
2018-10-19T11:27:02.525Z,58.32
2018-10-19T11:37:02.495Z,57.43
2018-10-19T11:47:02.461Z,55.60
2018-10-19T11:57:02.569Z,52.83
2018-10-19T12:07:02.587Z,55.56
2018-10-19T12:17:02.745Z,52.35
2018-10-19T12:27:02.619Z,55.18
2018-10-19T12:37:02.554Z,53.26
2018-10-19T12:47:02.502Z,56.61
2018-10-19T12:57:04.065Z,55.20
2018-10-19T13:07:02.564Z,53.81
2018-10-19T13:17:02.765Z,52.52
